sensor_id;sensor_type;location;lat;lon;timestamp;P1;durP1;ratioP1;P2;durP2;ratioP2
65971;SDS011;52726;48.852;9.152;2023-12-20T00:01:34;1.05;;;0.95;;
65971;SDS011;52726;48.852;9.152;2023-12-20T00:04:00;1.42;;;0.82;;
65971;SDS011;52726;48.852;9.152;2023-12-20T00:06:26;0.80;;;0.80;;
65971;SDS011;52726;48.852;9.152;2023-12-20T00:08:51;0.85;;;0.82;;
65971;SDS011;52726;48.852;9.152;2023-12-20T00:11:16;0.80;;;0.80;;
65971;SDS011;52726;48.852;9.152;2023-12-20T00:13:42;1.50;;;1.40;;
65971;SDS011;52726;48.852;9.152;2023-12-20T00:16:07;1.05;;;1.00;;
65971;SDS011;52726;48.852;9.152;2023-12-20T00:18:32;1.13;;;1.00;;
65971;SDS011;52726;48.852;9.152;2023-12-20T00:20:58;0.82;;;0.82;;
65971;SDS011;52726;48.852;9.152;2023-12-20T00:23:23;0.80;;;0.80;;
65971;SDS011;52726;48.852;9.152;2023-12-20T00:25:48;1.10;;;1.00;;
65971;SDS011;52726;48.852;9.152;2023-12-20T00:28:14;1.00;;;1.00;;
65971;SDS011;52726;48.852;9.152;2023-12-20T00:30:39;1.02;;;1.02;;
65971;SDS011;52726;48.852;9.152;2023-12-20T00:33:05;2.25;;;1.02;;
65971;SDS011;52726;48.852;9.152;2023-12-20T00:35:30;1.35;;;1.10;;
65971;SDS011;52726;48.852;9.152;2023-12-20T00:37:55;1.80;;;1.35;;
65971;SDS011;52726;48.852;9.152;2023-12-20T00:40:21;1.10;;;1.10;;
65971;SDS011;52726;48.852;9.152;2023-12-20T00:42:47;1.33;;;1.05;;
65971;SDS011;52726;48.852;9.152;2023-12-20T00:45:13;2.50;;;1.33;;
65971;SDS011;52726;48.852;9.152;2023-12-20T00:47:40;5.57;;;1.08;;
65971;SDS011;52726;48.852;9.152;2023-12-20T00:50:06;1.10;;;1.10;;
65971;SDS011;52726;48.852;9.152;2023-12-20T00:52:35;1.15;;;0.80;;
65971;SDS011;52726;48.852;9.152;2023-12-20T00:55:01;1.20;;;1.10;;
65971;SDS011;52726;48.852;9.152;2023-12-20T00:57:28;0.77;;;0.77;;
65971;SDS011;52726;48.852;9.152;2023-12-20T00:59:54;1.23;;;1.13;;
65971;SDS011;52726;48.852;9.152;2023-12-20T01:02:19;1.15;;;1.15;;
65971;SDS011;52726;48.852;9.152;2023-12-20T01:04:44;0.98;;;0.98;;
65971;SDS011;52726;48.852;9.152;2023-12-20T01:07:10;1.58;;;1.02;;
65971;SDS011;52726;48.852;9.152;2023-12-20T01:09:50;0.85;;;0.85;;
65971;SDS011;52726;48.852;9.152;2023-12-20T01:12:16;1.23;;;1.20;;
65971;SDS011;52726;48.852;9.152;2023-12-20T01:14:41;1.23;;;1.13;;
65971;SDS011;52726;48.852;9.152;2023-12-20T01:17:07;1.35;;;1.23;;
65971;SDS011;52726;48.852;9.152;2023-12-20T01:19:32;3.13;;;1.50;;
65971;SDS011;52726;48.852;9.152;2023-12-20T01:21:58;2.13;;;1.77;;
65971;SDS011;52726;48.852;9.152;2023-12-20T01:24:23;1.35;;;1.25;;
65971;SDS011;52726;48.852;9.152;2023-12-20T01:26:48;1.92;;;1.15;;
65971;SDS011;52726;48.852;9.152;2023-12-20T01:29:13;3.47;;;1.88;;
65971;SDS011;52726;48.852;9.152;2023-12-20T01:31:40;1.63;;;1.13;;
65971;SDS011;52726;48.852;9.152;2023-12-20T01:34:08;1.20;;;1.10;;
65971;SDS011;52726;48.852;9.152;2023-12-20T01:36:33;1.38;;;1.20;;
65971;SDS011;52726;48.852;9.152;2023-12-20T01:38:59;1.67;;;1.30;;
65971;SDS011;52726;48.852;9.152;2023-12-20T01:41:24;2.55;;;1.40;;
65971;SDS011;52726;48.852;9.152;2023-12-20T01:43:49;1.90;;;1.70;;
65971;SDS011;52726;48.852;9.152;2023-12-20T01:46:15;2.65;;;1.38;;
65971;SDS011;52726;48.852;9.152;2023-12-20T01:48:41;0.85;;;0.85;;
65971;SDS011;52726;48.852;9.152;2023-12-20T01:51:07;1.30;;;1.10;;
65971;SDS011;52726;48.852;9.152;2023-12-20T01:53:32;2.75;;;1.60;;
65971;SDS011;52726;48.852;9.152;2023-12-20T01:55:58;3.13;;;1.63;;
65971;SDS011;52726;48.852;9.152;2023-12-20T01:58:24;1.60;;;1.50;;
65971;SDS011;52726;48.852;9.152;2023-12-20T02:00:51;1.60;;;1.50;;
65971;SDS011;52726;48.852;9.152;2023-12-20T02:03:16;2.20;;;1.17;;
65971;SDS011;52726;48.852;9.152;2023-12-20T02:05:42;1.98;;;1.25;;
65971;SDS011;52726;48.852;9.152;2023-12-20T02:08:09;4.53;;;1.83;;
65971;SDS011;52726;48.852;9.152;2023-12-20T02:10:34;3.08;;;1.73;;
65971;SDS011;52726;48.852;9.152;2023-12-20T02:13:00;2.15;;;1.45;;
65971;SDS011;52726;48.852;9.152;2023-12-20T02:15:25;1.80;;;1.58;;
65971;SDS011;52726;48.852;9.152;2023-12-20T02:17:50;1.45;;;1.35;;
65971;SDS011;52726;48.852;9.152;2023-12-20T02:20:16;1.33;;;1.23;;
65971;SDS011;52726;48.852;9.152;2023-12-20T02:22:41;1.45;;;1.35;;
65971;SDS011;52726;48.852;9.152;2023-12-20T02:25:07;3.13;;;1.50;;
65971;SDS011;52726;48.852;9.152;2023-12-20T02:27:32;1.17;;;1.00;;
65971;SDS011;52726;48.852;9.152;2023-12-20T02:29:57;5.32;;;1.85;;
65971;SDS011;52726;48.852;9.152;2023-12-20T02:32:24;1.00;;;1.00;;
65971;SDS011;52726;48.852;9.152;2023-12-20T02:34:52;1.15;;;1.05;;
65971;SDS011;52726;48.852;9.152;2023-12-20T02:37:18;1.20;;;1.10;;
65971;SDS011;52726;48.852;9.152;2023-12-20T02:39:43;1.50;;;1.20;;
65971;SDS011;52726;48.852;9.152;2023-12-20T02:42:09;0.73;;;0.73;;
65971;SDS011;52726;48.852;9.152;2023-12-20T02:44:34;2.28;;;1.30;;
65971;SDS011;52726;48.852;9.152;2023-12-20T02:46:59;1.02;;;1.00;;
65971;SDS011;52726;48.852;9.152;2023-12-20T02:49:25;1.17;;;1.08;;
65971;SDS011;52726;48.852;9.152;2023-12-20T02:51:50;0.20;;;0.20;;
65971;SDS011;52726;48.852;9.152;2023-12-20T02:54:15;0.20;;;0.20;;
65971;SDS011;52726;48.852;9.152;2023-12-20T02:56:41;0.38;;;0.38;;
65971;SDS011;52726;48.852;9.152;2023-12-20T02:59:06;0.30;;;0.30;;
65971;SDS011;52726;48.852;9.152;2023-12-20T03:01:33;0.50;;;0.50;;
65971;SDS011;52726;48.852;9.152;2023-12-20T03:03:59;0.20;;;0.20;;
65971;SDS011;52726;48.852;9.152;2023-12-20T03:06:24;0.30;;;0.30;;
65971;SDS011;52726;48.852;9.152;2023-12-20T03:08:50;0.35;;;0.35;;
65971;SDS011;52726;48.852;9.152;2023-12-20T03:11:15;0.30;;;0.30;;
65971;SDS011;52726;48.852;9.152;2023-12-20T03:13:40;0.30;;;0.30;;
65971;SDS011;52726;48.852;9.152;2023-12-20T03:16:12;0.20;;;0.20;;
65971;SDS011;52726;48.852;9.152;2023-12-20T03:18:38;0.20;;;0.20;;
65971;SDS011;52726;48.852;9.152;2023-12-20T03:21:04;0.20;;;0.20;;
65971;SDS011;52726;48.852;9.152;2023-12-20T03:23:30;0.28;;;0.28;;
65971;SDS011;52726;48.852;9.152;2023-12-20T03:25:57;0.20;;;0.20;;
65971;SDS011;52726;48.852;9.152;2023-12-20T03:28:22;0.20;;;0.20;;
65971;SDS011;52726;48.852;9.152;2023-12-20T03:30:48;0.30;;;0.30;;
65971;SDS011;52726;48.852;9.152;2023-12-20T03:33:13;0.20;;;0.20;;
65971;SDS011;52726;48.852;9.152;2023-12-20T03:35:39;0.20;;;0.20;;
65971;SDS011;52726;48.852;9.152;2023-12-20T03:38:04;0.28;;;0.28;;
65971;SDS011;52726;48.852;9.152;2023-12-20T03:40:29;0.20;;;0.20;;
65971;SDS011;52726;48.852;9.152;2023-12-20T03:42:54;0.25;;;0.25;;
65971;SDS011;52726;48.852;9.152;2023-12-20T03:45:20;0.20;;;0.20;;
65971;SDS011;52726;48.852;9.152;2023-12-20T03:47:45;0.30;;;0.30;;
65971;SDS011;52726;48.852;9.152;2023-12-20T03:50:10;0.20;;;0.20;;
65971;SDS011;52726;48.852;9.152;2023-12-20T03:52:36;0.20;;;0.20;;
65971;SDS011;52726;48.852;9.152;2023-12-20T03:55:01;0.20;;;0.20;;
65971;SDS011;52726;48.852;9.152;2023-12-20T03:57:26;0.20;;;0.20;;
65971;SDS011;52726;48.852;9.152;2023-12-20T03:59:52;0.43;;;0.40;;
65971;SDS011;52726;48.852;9.152;2023-12-20T04:02:17;0.63;;;0.30;;
65971;SDS011;52726;48.852;9.152;2023-12-20T04:04:43;0.20;;;0.20;;
65971;SDS011;52726;48.852;9.152;2023-12-20T04:07:08;0.30;;;0.30;;
65971;SDS011;52726;48.852;9.152;2023-12-20T04:09:33;0.20;;;0.20;;
65971;SDS011;52726;48.852;9.152;2023-12-20T04:11:59;0.10;;;0.10;;
65971;SDS011;52726;48.852;9.152;2023-12-20T04:14:24;0.30;;;0.30;;
65971;SDS011;52726;48.852;9.152;2023-12-20T04:16:49;0.22;;;0.22;;
65971;SDS011;52726;48.852;9.152;2023-12-20T04:19:15;0.40;;;0.40;;
65971;SDS011;52726;48.852;9.152;2023-12-20T04:21:40;0.32;;;0.30;;
65971;SDS011;52726;48.852;9.152;2023-12-20T04:24:06;0.52;;;0.38;;
65971;SDS011;52726;48.852;9.152;2023-12-20T04:26:31;0.30;;;0.30;;
65971;SDS011;52726;48.852;9.152;2023-12-20T04:28:56;0.40;;;0.40;;
65971;SDS011;52726;48.852;9.152;2023-12-20T04:31:21;0.40;;;0.40;;
65971;SDS011;52726;48.852;9.152;2023-12-20T04:33:47;1.30;;;0.75;;
65971;SDS011;52726;48.852;9.152;2023-12-20T04:36:12;0.30;;;0.30;;
65971;SDS011;52726;48.852;9.152;2023-12-20T04:38:38;0.45;;;0.38;;
65971;SDS011;52726;48.852;9.152;2023-12-20T04:41:03;5.25;;;0.50;;
65971;SDS011;52726;48.852;9.152;2023-12-20T04:43:28;0.20;;;0.20;;
65971;SDS011;52726;48.852;9.152;2023-12-20T04:45:54;0.20;;;0.20;;
65971;SDS011;52726;48.852;9.152;2023-12-20T04:48:20;0.20;;;0.20;;
65971;SDS011;52726;48.852;9.152;2023-12-20T04:50:45;0.52;;;0.52;;
65971;SDS011;52726;48.852;9.152;2023-12-20T04:53:10;0.47;;;0.47;;
65971;SDS011;52726;48.852;9.152;2023-12-20T04:55:36;0.32;;;0.32;;
65971;SDS011;52726;48.852;9.152;2023-12-20T04:58:01;0.20;;;0.20;;
65971;SDS011;52726;48.852;9.152;2023-12-20T05:00:27;0.40;;;0.40;;
65971;SDS011;52726;48.852;9.152;2023-12-20T05:02:52;0.32;;;0.32;;
65971;SDS011;52726;48.852;9.152;2023-12-20T05:05:17;0.30;;;0.30;;
65971;SDS011;52726;48.852;9.152;2023-12-20T05:07:43;0.50;;;0.50;;
65971;SDS011;52726;48.852;9.152;2023-12-20T05:10:09;0.20;;;0.20;;
65971;SDS011;52726;48.852;9.152;2023-12-20T05:12:34;0.32;;;0.32;;
65971;SDS011;52726;48.852;9.152;2023-12-20T05:15:00;0.90;;;0.50;;
65971;SDS011;52726;48.852;9.152;2023-12-20T05:17:25;0.35;;;0.35;;
65971;SDS011;52726;48.852;9.152;2023-12-20T05:19:50;0.45;;;0.45;;
65971;SDS011;52726;48.852;9.152;2023-12-20T05:22:16;2.25;;;0.60;;
65971;SDS011;52726;48.852;9.152;2023-12-20T05:24:42;0.30;;;0.30;;
65971;SDS011;52726;48.852;9.152;2023-12-20T05:27:07;0.40;;;0.40;;
65971;SDS011;52726;48.852;9.152;2023-12-20T05:29:32;0.30;;;0.30;;
65971;SDS011;52726;48.852;9.152;2023-12-20T05:31:58;0.25;;;0.25;;
65971;SDS011;52726;48.852;9.152;2023-12-20T05:34:23;0.50;;;0.50;;
65971;SDS011;52726;48.852;9.152;2023-12-20T05:36:49;0.40;;;0.40;;
65971;SDS011;52726;48.852;9.152;2023-12-20T05:39:14;0.32;;;0.32;;
65971;SDS011;52726;48.852;9.152;2023-12-20T05:41:39;0.47;;;0.47;;
65971;SDS011;52726;48.852;9.152;2023-12-20T05:44:05;0.40;;;0.40;;
65971;SDS011;52726;48.852;9.152;2023-12-20T05:46:30;0.52;;;0.52;;
65971;SDS011;52726;48.852;9.152;2023-12-20T05:48:55;0.52;;;0.52;;
65971;SDS011;52726;48.852;9.152;2023-12-20T05:51:21;0.40;;;0.40;;
65971;SDS011;52726;48.852;9.152;2023-12-20T05:53:46;0.50;;;0.50;;
65971;SDS011;52726;48.852;9.152;2023-12-20T05:56:11;0.30;;;0.30;;
65971;SDS011;52726;48.852;9.152;2023-12-20T05:58:38;0.45;;;0.45;;
65971;SDS011;52726;48.852;9.152;2023-12-20T06:01:04;0.30;;;0.30;;
65971;SDS011;52726;48.852;9.152;2023-12-20T06:03:30;0.38;;;0.38;;
65971;SDS011;52726;48.852;9.152;2023-12-20T06:05:55;4.68;;;0.50;;
65971;SDS011;52726;48.852;9.152;2023-12-20T06:08:20;0.47;;;0.47;;
65971;SDS011;52726;48.852;9.152;2023-12-20T06:10:46;0.85;;;0.85;;
65971;SDS011;52726;48.852;9.152;2023-12-20T06:13:11;0.45;;;0.45;;
65971;SDS011;52726;48.852;9.152;2023-12-20T06:15:38;0.63;;;0.63;;
65971;SDS011;52726;48.852;9.152;2023-12-20T06:18:05;3.20;;;0.70;;
65971;SDS011;52726;48.852;9.152;2023-12-20T06:20:30;0.40;;;0.40;;
65971;SDS011;52726;48.852;9.152;2023-12-20T06:22:55;2.08;;;0.65;;
65971;SDS011;52726;48.852;9.152;2023-12-20T06:25:21;0.70;;;0.70;;
65971;SDS011;52726;48.852;9.152;2023-12-20T06:27:46;0.60;;;0.60;;
65971;SDS011;52726;48.852;9.152;2023-12-20T06:30:11;1.15;;;1.15;;
65971;SDS011;52726;48.852;9.152;2023-12-20T06:32:37;0.30;;;0.30;;
65971;SDS011;52726;48.852;9.152;2023-12-20T06:35:04;1.38;;;0.60;;
65971;SDS011;52726;48.852;9.152;2023-12-20T06:37:30;0.60;;;0.60;;
65971;SDS011;52726;48.852;9.152;2023-12-20T06:39:55;0.38;;;0.38;;
65971;SDS011;52726;48.852;9.152;2023-12-20T06:42:21;0.60;;;0.60;;
65971;SDS011;52726;48.852;9.152;2023-12-20T06:44:47;0.20;;;0.20;;
65971;SDS011;52726;48.852;9.152;2023-12-20T06:47:12;0.75;;;0.75;;
65971;SDS011;52726;48.852;9.152;2023-12-20T06:49:39;0.73;;;0.73;;
65971;SDS011;52726;48.852;9.152;2023-12-20T06:52:05;0.50;;;0.50;;
65971;SDS011;52726;48.852;9.152;2023-12-20T06:54:30;1.05;;;0.75;;
65971;SDS011;52726;48.852;9.152;2023-12-20T06:56:56;1.00;;;0.98;;
65971;SDS011;52726;48.852;9.152;2023-12-20T06:59:21;1.15;;;1.05;;
65971;SDS011;52726;48.852;9.152;2023-12-20T07:01:49;1.10;;;1.10;;
65971;SDS011;52726;48.852;9.152;2023-12-20T07:04:15;1.40;;;1.30;;
65971;SDS011;52726;48.852;9.152;2023-12-20T07:06:41;1.20;;;1.10;;
65971;SDS011;52726;48.852;9.152;2023-12-20T07:09:07;1.05;;;0.90;;
65971;SDS011;52726;48.852;9.152;2023-12-20T07:11:32;0.93;;;0.93;;
65971;SDS011;52726;48.852;9.152;2023-12-20T07:13:58;1.10;;;1.02;;
65971;SDS011;52726;48.852;9.152;2023-12-20T07:16:23;0.70;;;0.70;;
65971;SDS011;52726;48.852;9.152;2023-12-20T07:18:49;1.65;;;1.20;;
65971;SDS011;52726;48.852;9.152;2023-12-20T07:21:15;1.23;;;1.00;;
65971;SDS011;52726;48.852;9.152;2023-12-20T07:23:40;0.40;;;0.40;;
65971;SDS011;52726;48.852;9.152;2023-12-20T07:26:06;1.27;;;1.25;;
65971;SDS011;52726;48.852;9.152;2023-12-20T07:28:31;0.68;;;0.68;;
65971;SDS011;52726;48.852;9.152;2023-12-20T07:30:57;0.80;;;0.80;;
65971;SDS011;52726;48.852;9.152;2023-12-20T07:33:22;2.05;;;1.45;;
65971;SDS011;52726;48.852;9.152;2023-12-20T07:35:47;0.95;;;0.95;;
65971;SDS011;52726;48.852;9.152;2023-12-20T07:38:13;1.15;;;1.02;;
65971;SDS011;52726;48.852;9.152;2023-12-20T07:40:38;1.55;;;1.40;;
65971;SDS011;52726;48.852;9.152;2023-12-20T07:43:04;0.85;;;0.80;;
65971;SDS011;52726;48.852;9.152;2023-12-20T07:45:29;2.20;;;1.42;;
65971;SDS011;52726;48.852;9.152;2023-12-20T07:47:55;0.93;;;0.93;;
65971;SDS011;52726;48.852;9.152;2023-12-20T07:50:20;2.08;;;1.30;;
65971;SDS011;52726;48.852;9.152;2023-12-20T07:52:45;1.00;;;1.00;;
65971;SDS011;52726;48.852;9.152;2023-12-20T07:55:10;1.40;;;1.30;;
65971;SDS011;52726;48.852;9.152;2023-12-20T07:57:36;0.70;;;0.70;;
65971;SDS011;52726;48.852;9.152;2023-12-20T08:00:01;1.65;;;1.55;;
65971;SDS011;52726;48.852;9.152;2023-12-20T08:02:28;1.70;;;1.38;;
65971;SDS011;52726;48.852;9.152;2023-12-20T08:04:54;0.82;;;0.82;;
65971;SDS011;52726;48.852;9.152;2023-12-20T08:07:19;1.05;;;1.05;;
65971;SDS011;52726;48.852;9.152;2023-12-20T08:09:44;1.60;;;1.13;;
65971;SDS011;52726;48.852;9.152;2023-12-20T08:12:10;1.33;;;1.23;;
65971;SDS011;52726;48.852;9.152;2023-12-20T08:14:36;0.98;;;0.98;;
65971;SDS011;52726;48.852;9.152;2023-12-20T08:17:01;2.40;;;1.25;;
65971;SDS011;52726;48.852;9.152;2023-12-20T08:19:26;0.77;;;0.70;;
65971;SDS011;52726;48.852;9.152;2023-12-20T08:21:52;1.00;;;1.00;;
65971;SDS011;52726;48.852;9.152;2023-12-20T08:24:17;1.98;;;1.55;;
65971;SDS011;52726;48.852;9.152;2023-12-20T08:26:42;1.60;;;1.42;;
65971;SDS011;52726;48.852;9.152;2023-12-20T08:29:08;1.67;;;1.38;;
65971;SDS011;52726;48.852;9.152;2023-12-20T08:31:33;0.70;;;0.70;;
65971;SDS011;52726;48.852;9.152;2023-12-20T08:33:59;1.45;;;1.35;;
65971;SDS011;52726;48.852;9.152;2023-12-20T08:36:24;1.27;;;0.80;;
65971;SDS011;52726;48.852;9.152;2023-12-20T08:38:50;3.22;;;1.83;;
65971;SDS011;52726;48.852;9.152;2023-12-20T08:41:18;0.55;;;0.55;;
65971;SDS011;52726;48.852;9.152;2023-12-20T08:43:45;1.30;;;0.98;;
65971;SDS011;52726;48.852;9.152;2023-12-20T08:46:10;1.63;;;1.52;;
65971;SDS011;52726;48.852;9.152;2023-12-20T08:48:36;3.13;;;1.60;;
65971;SDS011;52726;48.852;9.152;2023-12-20T08:51:02;2.63;;;1.52;;
65971;SDS011;52726;48.852;9.152;2023-12-20T08:53:28;2.90;;;1.80;;
65971;SDS011;52726;48.852;9.152;2023-12-20T08:55:53;1.30;;;1.20;;
65971;SDS011;52726;48.852;9.152;2023-12-20T08:58:19;2.28;;;1.55;;
65971;SDS011;52726;48.852;9.152;2023-12-20T09:00:45;1.65;;;1.55;;
65971;SDS011;52726;48.852;9.152;2023-12-20T09:03:10;1.70;;;1.50;;
65971;SDS011;52726;48.852;9.152;2023-12-20T09:05:35;2.25;;;1.85;;
65971;SDS011;52726;48.852;9.152;2023-12-20T09:08:01;1.55;;;1.25;;
65971;SDS011;52726;48.852;9.152;2023-12-20T09:10:26;1.65;;;1.30;;
65971;SDS011;52726;48.852;9.152;2023-12-20T09:12:52;1.40;;;1.30;;
65971;SDS011;52726;48.852;9.152;2023-12-20T09:15:25;4.07;;;2.30;;
65971;SDS011;52726;48.852;9.152;2023-12-20T09:17:51;7.05;;;3.35;;
65971;SDS011;52726;48.852;9.152;2023-12-20T09:20:16;4.32;;;2.88;;
65971;SDS011;52726;48.852;9.152;2023-12-20T09:22:42;11.18;;;4.47;;
65971;SDS011;52726;48.852;9.152;2023-12-20T09:25:07;7.18;;;3.83;;
65971;SDS011;52726;48.852;9.152;2023-12-20T09:27:33;4.07;;;2.60;;
65971;SDS011;52726;48.852;9.152;2023-12-20T09:29:58;4.85;;;3.08;;
65971;SDS011;52726;48.852;9.152;2023-12-20T09:32:24;1.80;;;1.60;;
65971;SDS011;52726;48.852;9.152;2023-12-20T09:34:49;10.27;;;3.85;;
65971;SDS011;52726;48.852;9.152;2023-12-20T09:37:14;8.38;;;3.17;;
65971;SDS011;52726;48.852;9.152;2023-12-20T09:39:40;5.32;;;3.22;;
65971;SDS011;52726;48.852;9.152;2023-12-20T09:42:05;5.53;;;2.50;;
65971;SDS011;52726;48.852;9.152;2023-12-20T09:44:31;4.20;;;1.90;;
65971;SDS011;52726;48.852;9.152;2023-12-20T09:47:02;4.85;;;2.70;;
65971;SDS011;52726;48.852;9.152;2023-12-20T09:49:29;1.73;;;1.50;;
65971;SDS011;52726;48.852;9.152;2023-12-20T09:51:55;3.72;;;1.77;;
65971;SDS011;52726;48.852;9.152;2023-12-20T09:54:22;4.22;;;1.90;;
65971;SDS011;52726;48.852;9.152;2023-12-20T09:56:48;2.85;;;1.58;;
65971;SDS011;52726;48.852;9.152;2023-12-20T09:59:14;4.90;;;1.67;;
65971;SDS011;52726;48.852;9.152;2023-12-20T10:01:40;0.50;;;0.50;;
65971;SDS011;52726;48.852;9.152;2023-12-20T10:04:06;8.25;;;3.20;;
65971;SDS011;52726;48.852;9.152;2023-12-20T10:06:52;9.13;;;2.72;;
65971;SDS011;52726;48.852;9.152;2023-12-20T10:09:17;13.45;;;6.20;;
65971;SDS011;52726;48.852;9.152;2023-12-20T10:11:43;6.68;;;2.60;;
65971;SDS011;52726;48.852;9.152;2023-12-20T10:14:10;3.30;;;2.00;;
65971;SDS011;52726;48.852;9.152;2023-12-20T10:16:36;10.63;;;2.40;;
65971;SDS011;52726;48.852;9.152;2023-12-20T10:19:01;10.68;;;4.40;;
65971;SDS011;52726;48.852;9.152;2023-12-20T10:21:27;3.13;;;2.10;;
65971;SDS011;52726;48.852;9.152;2023-12-20T10:23:56;1.55;;;1.33;;
65971;SDS011;52726;48.852;9.152;2023-12-20T10:26:23;2.88;;;1.70;;
65971;SDS011;52726;48.852;9.152;2023-12-20T10:28:50;2.30;;;1.70;;
65971;SDS011;52726;48.852;9.152;2023-12-20T10:31:27;4.15;;;1.85;;
65971;SDS011;52726;48.852;9.152;2023-12-20T10:33:58;4.57;;;1.38;;
65971;SDS011;52726;48.852;9.152;2023-12-20T10:36:27;1.48;;;1.35;;
65971;SDS011;52726;48.852;9.152;2023-12-20T10:38:55;5.82;;;1.75;;
65971;SDS011;52726;48.852;9.152;2023-12-20T10:41:26;1.85;;;1.67;;
65971;SDS011;52726;48.852;9.152;2023-12-20T10:43:55;2.70;;;1.73;;
65971;SDS011;52726;48.852;9.152;2023-12-20T10:46:23;0.88;;;0.88;;
65971;SDS011;52726;48.852;9.152;2023-12-20T10:48:51;7.35;;;1.42;;
65971;SDS011;52726;48.852;9.152;2023-12-20T10:51:18;0.90;;;0.90;;
65971;SDS011;52726;48.852;9.152;2023-12-20T10:53:46;1.27;;;1.13;;
65971;SDS011;52726;48.852;9.152;2023-12-20T10:56:15;2.58;;;1.35;;
65971;SDS011;52726;48.852;9.152;2023-12-20T10:58:45;3.53;;;1.17;;
65971;SDS011;52726;48.852;9.152;2023-12-20T11:01:12;1.23;;;1.13;;
65971;SDS011;52726;48.852;9.152;2023-12-20T11:03:39;3.03;;;0.90;;
65971;SDS011;52726;48.852;9.152;2023-12-20T11:06:15;1.60;;;0.80;;
65971;SDS011;52726;48.852;9.152;2023-12-20T11:08:50;4.85;;;1.60;;
65971;SDS011;52726;48.852;9.152;2023-12-20T11:11:30;1.17;;;1.08;;
65971;SDS011;52726;48.852;9.152;2023-12-20T11:14:06;1.70;;;1.10;;
65971;SDS011;52726;48.852;9.152;2023-12-20T11:16:37;1.48;;;0.98;;
65971;SDS011;52726;48.852;9.152;2023-12-20T11:19:05;5.38;;;1.15;;
65971;SDS011;52726;48.852;9.152;2023-12-20T11:21:30;1.77;;;1.15;;
65971;SDS011;52726;48.852;9.152;2023-12-20T11:23:56;4.75;;;1.17;;
65971;SDS011;52726;48.852;9.152;2023-12-20T11:26:27;1.10;;;1.00;;
65971;SDS011;52726;48.852;9.152;2023-12-20T11:28:53;1.58;;;0.90;;
65971;SDS011;52726;48.852;9.152;2023-12-20T11:31:19;0.57;;;0.50;;
65971;SDS011;52726;48.852;9.152;2023-12-20T11:33:44;3.35;;;1.50;;
65971;SDS011;52726;48.852;9.152;2023-12-20T11:36:21;3.50;;;1.42;;
65971;SDS011;52726;48.852;9.152;2023-12-20T11:38:53;2.97;;;1.40;;
65971;SDS011;52726;48.852;9.152;2023-12-20T11:41:22;3.58;;;1.52;;
65971;SDS011;52726;48.852;9.152;2023-12-20T11:43:49;1.95;;;0.70;;
65971;SDS011;52726;48.852;9.152;2023-12-20T11:46:18;3.28;;;1.48;;
65971;SDS011;52726;48.852;9.152;2023-12-20T11:48:43;1.30;;;0.98;;
65971;SDS011;52726;48.852;9.152;2023-12-20T11:51:12;3.58;;;1.80;;
65971;SDS011;52726;48.852;9.152;2023-12-20T11:53:39;7.47;;;1.45;;
65971;SDS011;52726;48.852;9.152;2023-12-20T11:56:10;2.25;;;0.95;;
65971;SDS011;52726;48.852;9.152;2023-12-20T11:58:35;0.75;;;0.70;;
65971;SDS011;52726;48.852;9.152;2023-12-20T12:01:01;1.25;;;1.00;;
65971;SDS011;52726;48.852;9.152;2023-12-20T12:03:29;3.30;;;1.33;;
65971;SDS011;52726;48.852;9.152;2023-12-20T12:05:55;1.25;;;1.15;;
65971;SDS011;52726;48.852;9.152;2023-12-20T12:08:28;1.70;;;1.35;;
65971;SDS011;52726;48.852;9.152;2023-12-20T12:10:56;4.78;;;1.25;;
65971;SDS011;52726;48.852;9.152;2023-12-20T12:13:22;0.60;;;0.60;;
65971;SDS011;52726;48.852;9.152;2023-12-20T12:15:47;1.73;;;1.23;;
65971;SDS011;52726;48.852;9.152;2023-12-20T12:18:16;1.27;;;1.17;;
65971;SDS011;52726;48.852;9.152;2023-12-20T12:20:42;2.10;;;1.30;;
65971;SDS011;52726;48.852;9.152;2023-12-20T12:23:07;2.08;;;0.93;;
65971;SDS011;52726;48.852;9.152;2023-12-20T12:25:36;1.08;;;0.93;;
65971;SDS011;52726;48.852;9.152;2023-12-20T12:28:03;3.78;;;1.33;;
65971;SDS011;52726;48.852;9.152;2023-12-20T12:30:29;7.65;;;2.58;;
65971;SDS011;52726;48.852;9.152;2023-12-20T12:32:55;4.95;;;1.70;;
65971;SDS011;52726;48.852;9.152;2023-12-20T12:35:24;4.05;;;1.92;;
65971;SDS011;52726;48.852;9.152;2023-12-20T12:38:02;2.20;;;1.58;;
65971;SDS011;52726;48.852;9.152;2023-12-20T12:40:28;3.92;;;1.20;;
65971;SDS011;52726;48.852;9.152;2023-12-20T12:42:53;0.85;;;0.82;;
65971;SDS011;52726;48.852;9.152;2023-12-20T12:45:22;1.25;;;0.85;;
65971;SDS011;52726;48.852;9.152;2023-12-20T12:47:47;5.00;;;1.65;;
65971;SDS011;52726;48.852;9.152;2023-12-20T12:50:12;1.15;;;0.88;;
65971;SDS011;52726;48.852;9.152;2023-12-20T12:52:38;2.03;;;1.58;;
65971;SDS011;52726;48.852;9.152;2023-12-20T12:55:03;3.03;;;2.05;;
65971;SDS011;52726;48.852;9.152;2023-12-20T12:57:32;6.32;;;2.00;;
65971;SDS011;52726;48.852;9.152;2023-12-20T12:59:58;2.20;;;1.60;;
65971;SDS011;52726;48.852;9.152;2023-12-20T13:02:23;1.98;;;1.13;;
65971;SDS011;52726;48.852;9.152;2023-12-20T13:04:49;2.75;;;1.52;;
65971;SDS011;52726;48.852;9.152;2023-12-20T13:07:14;2.30;;;1.50;;
65971;SDS011;52726;48.852;9.152;2023-12-20T13:09:40;8.90;;;1.65;;
65971;SDS011;52726;48.852;9.152;2023-12-20T13:12:05;2.80;;;1.27;;
65971;SDS011;52726;48.852;9.152;2023-12-20T13:14:34;2.88;;;0.80;;
65971;SDS011;52726;48.852;9.152;2023-12-20T13:17:02;1.13;;;1.05;;
65971;SDS011;52726;48.852;9.152;2023-12-20T13:19:37;0.30;;;0.30;;
65971;SDS011;52726;48.852;9.152;2023-12-20T13:22:03;1.63;;;1.05;;
65971;SDS011;52726;48.852;9.152;2023-12-20T13:24:28;0.85;;;0.73;;
65971;SDS011;52726;48.852;9.152;2023-12-20T13:26:54;2.42;;;0.90;;
65971;SDS011;52726;48.852;9.152;2023-12-20T13:29:20;4.68;;;1.20;;
65971;SDS011;52726;48.852;9.152;2023-12-20T13:31:45;1.05;;;0.95;;
65971;SDS011;52726;48.852;9.152;2023-12-20T13:34:10;1.13;;;1.13;;
65971;SDS011;52726;48.852;9.152;2023-12-20T13:36:36;1.27;;;0.80;;
65971;SDS011;52726;48.852;9.152;2023-12-20T13:39:02;0.38;;;0.38;;
65971;SDS011;52726;48.852;9.152;2023-12-20T13:41:29;0.40;;;0.40;;
65971;SDS011;52726;48.852;9.152;2023-12-20T13:43:55;2.58;;;0.82;;
65971;SDS011;52726;48.852;9.152;2023-12-20T13:46:20;0.77;;;0.57;;
65971;SDS011;52726;48.852;9.152;2023-12-20T13:48:46;0.50;;;0.50;;
65971;SDS011;52726;48.852;9.152;2023-12-20T13:51:11;3.08;;;1.00;;
65971;SDS011;52726;48.852;9.152;2023-12-20T13:53:37;1.70;;;0.75;;
65971;SDS011;52726;48.852;9.152;2023-12-20T13:56:03;2.03;;;0.88;;
65971;SDS011;52726;48.852;9.152;2023-12-20T13:58:29;1.30;;;0.55;;
65971;SDS011;52726;48.852;9.152;2023-12-20T14:00:54;0.70;;;0.70;;
65971;SDS011;52726;48.852;9.152;2023-12-20T14:03:20;0.70;;;0.70;;
65971;SDS011;52726;48.852;9.152;2023-12-20T14:05:45;1.48;;;0.90;;
65971;SDS011;52726;48.852;9.152;2023-12-20T14:08:11;0.60;;;0.60;;
65971;SDS011;52726;48.852;9.152;2023-12-20T14:10:36;1.13;;;0.93;;
65971;SDS011;52726;48.852;9.152;2023-12-20T14:13:01;0.70;;;0.70;;
65971;SDS011;52726;48.852;9.152;2023-12-20T14:15:27;4.40;;;1.13;;
65971;SDS011;52726;48.852;9.152;2023-12-20T14:18:01;2.42;;;0.93;;
65971;SDS011;52726;48.852;9.152;2023-12-20T14:20:31;0.82;;;0.82;;
65971;SDS011;52726;48.852;9.152;2023-12-20T14:22:57;2.25;;;0.93;;
65971;SDS011;52726;48.852;9.152;2023-12-20T14:25:22;0.70;;;0.70;;
65971;SDS011;52726;48.852;9.152;2023-12-20T14:27:48;2.10;;;1.17;;
65971;SDS011;52726;48.852;9.152;2023-12-20T14:30:13;1.00;;;0.65;;
65971;SDS011;52726;48.852;9.152;2023-12-20T14:32:39;1.75;;;0.90;;
65971;SDS011;52726;48.852;9.152;2023-12-20T14:35:05;2.45;;;1.38;;
65971;SDS011;52726;48.852;9.152;2023-12-20T14:37:31;2.47;;;1.20;;
65971;SDS011;52726;48.852;9.152;2023-12-20T14:39:57;1.42;;;0.85;;
65971;SDS011;52726;48.852;9.152;2023-12-20T14:42:22;2.35;;;1.33;;